createdAt,value
2023-05-11T05:12:29.426Z,12.90
2023-05-11T05:17:31.932Z,12.90
2023-05-11T05:22:34.298Z,12.90
2023-05-11T05:27:36.248Z,12.90
2023-05-11T05:32:38.182Z,12.90
2023-05-11T05:37:40.072Z,13.00
2023-05-11T05:42:41.963Z,13.00
2023-05-11T05:47:43.857Z,13.00
2023-05-11T05:52:45.808Z,13.00
2023-05-11T05:57:47.662Z,13.00
2023-05-11T06:02:49.605Z,13.00
2023-05-11T06:08:01.777Z,13.00
2023-05-11T06:13:10.767Z,13.00
2023-05-11T06:18:12.696Z,13.00
2023-05-11T06:23:14.793Z,13.00
2023-05-11T06:28:16.721Z,13.00
2023-05-11T06:33:18.523Z,13.00
2023-05-11T06:38:20.367Z,13.00
2023-05-11T06:43:22.272Z,13.00
2023-05-11T06:48:25.818Z,12.90
2023-05-11T06:53:27.700Z,13.00
2023-05-11T06:58:29.901Z,12.90
2023-05-11T07:03:31.774Z,13.00
2023-05-11T07:08:36.362Z,13.00
2023-05-11T07:13:38.404Z,13.00
2023-05-11T07:18:40.533Z,13.00
2023-05-11T07:23:42.991Z,13.10
2023-05-11T07:28:47.809Z,13.10
2023-05-11T07:33:49.918Z,13.20
2023-05-11T07:38:51.806Z,13.20
2023-05-11T07:43:54.757Z,13.30
2023-05-11T07:49:11.260Z,13.30
2023-05-11T07:54:18.830Z,13.30
2023-05-11T07:59:22.057Z,13.30
2023-05-11T08:04:24.231Z,13.20
2023-05-11T08:09:26.174Z,13.20
2023-05-11T08:14:28.271Z,13.10
2023-05-11T08:19:30.129Z,13.10
2023-05-11T08:24:32.061Z,13.10
2023-05-11T08:29:33.905Z,13.10
2023-05-11T08:34:35.876Z,13.10
2023-05-11T08:39:46.100Z,13.00
2023-05-11T08:44:49.361Z,13.10
2023-05-11T08:49:55.790Z,13.10
2023-05-11T08:54:57.765Z,13.10
2023-05-11T09:00:01.963Z,13.10
2023-05-11T09:05:04.498Z,13.10
2023-05-11T09:10:07.165Z,13.20
2023-05-11T09:15:09.474Z,13.20
2023-05-11T09:20:11.713Z,13.30
2023-05-11T09:25:19.881Z,13.40
2023-05-11T09:30:23.943Z,13.40
2023-05-11T09:35:28.761Z,13.50
2023-05-11T09:40:46.384Z,13.50
2023-05-11T09:45:50.196Z,13.70
2023-05-11T09:50:59.583Z,13.90
2023-05-11T09:56:01.560Z,14.00
2023-05-11T10:01:03.565Z,14.20
2023-05-11T10:06:05.672Z,14.40
2023-05-11T10:11:08.728Z,14.40
2023-05-11T10:16:12.271Z,14.50
2023-05-11T10:21:15.476Z,14.50
2023-05-11T10:26:29.912Z,14.60
2023-05-11T10:31:33.658Z,14.80
2023-05-11T10:36:35.835Z,14.90
2023-05-11T10:42:07.615Z,15.10
2023-05-11T10:47:22.219Z,15.20
2023-05-11T10:53:04.989Z,15.30
2023-05-11T10:58:23.144Z,15.30
2023-05-11T11:03:25.194Z,15.30
2023-05-11T11:08:27.201Z,15.50
2023-05-11T11:13:29.224Z,15.60
2023-05-11T11:18:35.731Z,15.80
2023-05-11T11:23:43.845Z,16.00
2023-05-11T11:29:13.623Z,16.20
2023-05-11T11:34:27.751Z,16.70
2023-05-11T11:39:46.330Z,17.10
2023-05-11T11:44:48.648Z,17.50
2023-05-11T11:49:55.136Z,18.10
2023-05-11T11:55:01.235Z,18.50
2023-05-11T12:00:13.040Z,18.70
2023-05-11T12:05:20.040Z,18.90
2023-05-11T12:10:23.101Z,18.90
2023-05-11T12:15:26.375Z,18.70
2023-05-11T12:20:28.471Z,18.50
2023-05-11T12:25:30.449Z,18.50
2023-05-11T12:30:33.792Z,18.50
2023-05-11T12:35:35.743Z,18.70
2023-05-11T12:40:39.875Z,18.90
2023-05-11T12:45:42.060Z,18.70
2023-05-11T12:50:47.209Z,18.70
2023-05-11T12:55:59.463Z,18.70
2023-05-11T13:01:01.679Z,18.80
2023-05-11T13:06:11.874Z,19.10
2023-05-11T13:11:17.519Z,19.40
2023-05-11T13:16:32.878Z,19.40
2023-05-11T13:21:34.928Z,19.40
2023-05-11T13:26:36.787Z,19.30
2023-05-11T13:31:47.077Z,19.20
2023-05-11T13:36:49.325Z,19.10
2023-05-11T13:41:51.971Z,19.10
2023-05-11T13:46:55.424Z,19.10
2023-05-11T13:51:57.314Z,19.20
2023-05-11T13:57:00.760Z,19.00
2023-05-11T14:02:02.744Z,19.20
2023-05-11T14:07:04.967Z,19.40
2023-05-11T14:12:07.076Z,19.50
2023-05-11T14:17:10.616Z,19.50
2023-05-11T14:22:12.575Z,19.40
2023-05-11T14:27:14.463Z,19.20
2023-05-11T14:32:16.332Z,18.70
2023-05-11T14:37:18.368Z,18.40
2023-05-11T14:42:20.288Z,18.00
2023-05-11T14:47:22.215Z,17.70
2023-05-11T14:52:24.232Z,17.40
2023-05-11T14:57:26.192Z,17.30
2023-05-11T15:02:28.948Z,17.10
2023-05-11T15:07:30.895Z,16.70
2023-05-11T15:12:33.952Z,16.40
2023-05-11T15:17:36.170Z,16.10
2023-05-11T15:22:38.231Z,16.00
2023-05-11T15:27:40.138Z,15.90
2023-05-11T15:32:42.195Z,15.80
2023-05-11T15:37:44.121Z,15.70
2023-05-11T15:42:46.418Z,15.70
2023-05-11T15:47:48.404Z,15.70
2023-05-11T15:52:50.315Z,15.70
2023-05-11T15:57:52.232Z,15.80
2023-05-11T16:02:54.141Z,15.80
2023-05-11T16:07:56.195Z,15.60
2023-05-11T16:12:59.057Z,15.50
2023-05-11T16:18:04.010Z,15.40
2023-05-11T16:23:06.809Z,15.20
2023-05-11T16:28:08.695Z,15.10
2023-05-11T16:33:10.622Z,15.00
2023-05-11T16:38:19.453Z,14.90
2023-05-11T16:43:21.327Z,14.70
2023-05-11T16:48:23.168Z,14.70
2023-05-11T16:53:27.303Z,14.70
2023-05-11T16:58:31.001Z,14.60
2023-05-11T17:03:34.586Z,14.50
2023-05-11T17:08:36.641Z,14.40
2023-05-11T17:13:38.624Z,14.30
2023-05-11T17:18:40.696Z,14.40
2023-05-11T17:23:45.601Z,14.50
2023-05-11T17:28:47.953Z,14.50
2023-05-11T17:33:49.958Z,14.50
2023-05-11T17:38:53.774Z,14.50
2023-05-11T17:43:55.802Z,14.50
2023-05-11T17:48:57.877Z,14.40
2023-05-11T17:53:59.851Z,14.40
2023-05-11T17:59:01.722Z,14.40
2023-05-11T18:04:04.921Z,14.40
2023-05-11T18:09:07.067Z,14.40
2023-05-11T18:14:10.776Z,14.40
2023-05-11T18:19:12.750Z,14.40
2023-05-11T18:24:15.336Z,14.50
2023-05-11T18:29:20.129Z,14.50
2023-05-11T18:34:22.381Z,14.40
2023-05-11T18:39:24.301Z,14.50
2023-05-11T18:44:26.117Z,14.50
2023-05-11T18:49:28.314Z,14.50
2023-05-11T18:54:30.167Z,14.50
2023-05-11T18:59:32.244Z,14.50
2023-05-11T19:04:34.213Z,14.50
2023-05-11T19:09:36.086Z,14.50
2023-05-11T19:14:38.058Z,14.50
2023-05-11T19:19:39.970Z,14.40
2023-05-11T19:24:42.050Z,14.40
2023-05-11T19:29:44.030Z,14.30
2023-05-11T19:35:01.952Z,14.30
2023-05-11T19:46:09.174Z,14.30
2023-05-11T19:51:21.330Z,14.30
2023-05-11T19:56:31.100Z,14.20
2023-05-11T20:01:54.913Z,14.20
2023-05-11T20:07:24.061Z,14.20
2023-05-11T20:13:08.866Z,14.20
2023-05-11T20:18:06.491Z,14.20
2023-05-11T20:29:02.404Z,14.30
2023-05-11T20:34:07.317Z,14.20
2023-05-11T20:39:11.452Z,14.20
2023-05-11T20:44:15.453Z,14.20
2023-05-11T20:49:37.492Z,14.20
2023-05-11T20:54:43.728Z,14.10
2023-05-11T21:05:01.982Z,14.20
2023-05-11T21:10:04.623Z,14.20
2023-05-11T21:15:07.421Z,14.30
2023-05-11T21:20:11.303Z,14.30
2023-05-11T21:25:13.657Z,14.30
2023-05-11T21:30:16.035Z,14.20
2023-05-11T21:35:18.586Z,14.20
2023-05-11T21:40:20.989Z,14.10
2023-05-11T21:45:25.728Z,14.10
2023-05-11T21:50:27.818Z,14.00
2023-05-11T21:55:32.721Z,14.00
2023-05-11T22:00:35.102Z,13.90
2023-05-11T22:05:39.905Z,13.90
2023-05-11T22:10:44.826Z,13.90
2023-05-11T22:15:53.922Z,13.80
2023-05-11T22:20:56.194Z,13.80
2023-05-11T22:26:00.569Z,13.80
2023-05-11T22:31:02.629Z,13.80
2023-05-11T22:36:04.918Z,13.80
2023-05-11T22:41:07.464Z,13.80
2023-05-11T22:46:09.528Z,13.80
2023-05-11T22:51:14.642Z,13.80
2023-05-11T22:56:17.109Z,13.70
2023-05-11T23:01:19.340Z,13.70
2023-05-11T23:06:21.401Z,13.70
2023-05-11T23:11:24.460Z,13.70
2023-05-11T23:16:26.560Z,13.70
2023-05-11T23:21:31.502Z,13.70
2023-05-11T23:26:33.649Z,13.70
2023-05-11T23:31:35.817Z,13.60
2023-05-11T23:36:41.785Z,13.60
2023-05-11T23:41:43.942Z,13.50
2023-05-11T23:46:47.323Z,13.50
2023-05-11T23:51:49.440Z,13.40
2023-05-11T23:56:56.156Z,13.50
